Time;durP1;ratioP1;P1;durP2;ratioP2;P2;SDS_P1;SDS_P2;PMS_P1;PMS_P2;Temp;Humidity;BMP_temperature;BMP_pressure;BME280_temperature;BME280_humidity;BME280_pressure;Samples;Min_cycle;Max_cycle;Signal;HPM_P1;HPM_P2
2022/11/05 12:39:50;;;;;;;6.55;1.80;;;;;;;10.95;69.83;100994.47;6151229;23;20361;-77
2022/11/05 12:43:23;;;;;;;7.05;1.95;;;;;;;10.93;70.13;101001.53;6152230;23;20487;-76
2022/11/05 12:47:05;;;;;;;6.88;2.72;;;;;;;10.50;70.43;101000.00;6151900;23;20098;-76
2022/11/05 12:50:46;;;;;;;9.48;4.75;;;;;;;10.37;70.82;101004.94;6151735;23;20404;-75
2022/11/05 12:54:25;;;;;;;6.85;2.47;;;;;;;10.04;72.57;101007.22;6131756;23;20073;-76
2022/11/05 12:57:31;;;;;;;8.70;3.15;;;;;;;10.08;72.29;101011.38;6134967;23;20058;-78
2022/11/05 13:00:36;;;;;;;7.40;2.83;;;;;;;10.26;71.82;101010.63;6150091;23;20028;-77
2022/11/05 13:03:54;;;;;;;9.07;4.03;;;;;;;10.62;71.36;101010.78;6151923;23;20077;-77
2022/11/05 13:07:27;;;;;;;6.30;2.33;;;;;;;10.26;71.85;101018.47;6148902;23;20486;-77
2022/11/05 13:10:49;;;;;;;5.45;2.40;;;;;;;10.28;71.70;101015.81;6133542;23;20047;-78
2022/11/05 13:14:22;;;;;;;4.75;2.35;;;;;;;10.30;70.97;101017.41;6151029;23;20496;-78
2022/11/05 13:17:41;;;;;;;10.40;2.65;;;;;;;10.28;69.80;101006.19;6151790;23;20027;-77
2022/11/05 13:20:49;;;;;;;7.15;2.92;;;;;;;10.52;69.25;101013.88;6151710;23;20153;-78
2022/11/05 13:24:08;;;;;;;7.50;3.47;;;;;;;10.17;69.78;101011.00;6151375;23;20032;-78
2022/11/05 13:27:33;;;;;;;7.07;2.63;;;;;;;10.07;69.59;101002.69;6152482;23;20024;-78
2022/11/05 13:30:42;;;;;;;11.45;5.55;;;;;;;10.02;70.32;100996.84;6133032;23;20028;-77
2022/11/05 13:33:48;;;;;;;8.00;3.30;;;;;;;10.19;70.06;100999.56;6151356;23;20101;-78
2022/11/05 13:40:38;;;;;;;9.77;5.15;;;;;;;10.28;69.72;100998.34;6147001;23;20064;-76
2022/11/05 13:44:18;;;;;;;8.68;4.20;;;;;;;10.21;69.70;101007.31;6145358;23;20028;-76
2022/11/05 13:47:59;;;;;;;32.63;20.52;;;;;;;10.06;69.93;101000.16;6143644;23;20511;-78
2022/11/05 13:51:06;;;;;;;10.15;4.10;;;;;;;10.22;69.38;101003.81;6145093;23;20032;-77
2022/11/05 13:54:21;;;;;;;23.35;14.50;;;;;;;10.20;69.41;101000.41;6145637;23;20078;-76
2022/11/05 13:57:34;;;;;;;63.28;38.17;;;;;;;9.92;69.38;100992.88;6145295;23;20024;-77
2022/11/05 14:01:13;;;;;;;9.80;3.63;;;;;;;10.08;69.19;100999.16;6145194;23;20492;-77
2022/11/05 14:04:30;;;;;;;11.05;3.65;;;;;;;9.95;69.67;101004.06;6145584;23;20044;-77
2022/11/05 14:07:42;;;;;;;28.23;13.48;;;;;;;10.10;69.55;100999.94;6146480;23;20020;-76
2022/11/05 14:11:06;;;;;;;7.18;3.15;;;;;;;10.02;68.47;100989.00;6146342;23;20028;-76
2022/11/05 14:14:18;;;;;;;9.25;4.72;;;;;;;9.78;69.31;100977.81;6144345;23;20070;-77
2022/11/05 14:18:02;;;;;;;5.85;3.10;;;;;;;10.10;67.30;100975.59;6126552;23;20023;-77
2022/11/05 14:21:32;;;;;;;20.08;12.63;;;;;;;10.14;67.93;100987.59;6148806;23;20420;-77
2022/11/05 14:24:43;;;;;;;16.38;9.88;;;;;;;10.07;67.05;100987.03;6151210;23;20271;-77
2022/11/05 14:27:50;;;;;;;18.35;11.02;;;;;;;9.98;67.32;101000.47;6150719;23;20058;-77
2022/11/05 14:30:53;;;;;;;20.92;12.88;;;;;;;9.94;67.86;100994.53;6150789;23;20075;-77
2022/11/05 14:34:08;;;;;;;41.90;24.98;;;;;;;10.00;68.27;100991.66;6150796;23;20086;-77
2022/11/05 14:37:11;;;;;;;12.57;7.47;;;;;;;10.10;67.55;100981.66;6150571;23;20105;-77
2022/11/05 14:40:20;;;;;;;;;;;;;;;10.17;67.19;100982.25;6151250;23;20480;-77
2022/11/05 14:43:29;;;;;;;9.30;4.07;;;;;;;10.27;66.87;100986.19;6150041;23;19915;-79
2022/11/05 14:46:42;;;;;;;16.85;11.50;;;;;;;10.15;67.03;100968.41;6150630;23;20040;-78
2022/11/05 14:49:58;;;;;;;14.90;9.70;;;;;;;10.38;66.91;100964.81;6150110;23;20032;-78
2022/11/05 14:53:10;;;;;;;10.93;3.78;;;;;;;10.44;66.93;100964.56;6132310;23;20096;-78
2022/11/05 14:56:18;;;;;;;6.40;2.35;;;;;;;10.51;68.48;100960.75;6148823;23;20078;-78
2022/11/05 14:59:44;;;;;;;9.75;2.75;;;;;;;10.52;70.33;100972.88;6148205;23;20623;-78
2022/11/05 15:03:02;;;;;;;6.38;2.22;;;;;;;10.44;69.57;100980.25;6150598;23;20032;-78
2022/11/05 15:06:28;;;;;;;5.15;1.98;;;;;;;10.35;71.55;100980.63;6150570;23;20115;-78
2022/11/05 15:09:39;;;;;;;4.53;1.98;;;;;;;10.26;72.23;100971.44;6150620;23;20561;-78
2022/11/05 15:13:00;;;;;;;7.50;2.72;;;;;;;10.17;75.09;100977.03;6150535;23;20035;-78
2022/11/05 15:16:05;;;;;;;7.05;2.97;;;;;;;9.82;70.77;100981.97;6150552;23;20087;-78
2022/11/05 15:19:19;;;;;;;6.63;2.28;;;;;;;9.94;73.93;100986.69;6150837;23;20082;-77
2022/11/05 15:22:29;;;;;;;6.43;1.90;;;;;;;9.82;75.21;100979.38;6150519;23;20024;-77
2022/11/05 15:25:57;;;;;;;5.90;1.77;;;;;;;9.66;76.36;100976.53;6133198;23;20029;-77
2022/11/05 15:29:02;;;;;;;10.48;2.22;;;;;;;9.59;77.06;100969.88;6150323;23;20441;-77
2022/11/05 15:32:16;;;;;;;13.98;1.90;;;;;;;9.55;76.95;100971.78;6150300;23;20032;-77
2022/11/05 15:35:26;;;;;;;6.45;1.75;;;;;;;9.60;76.50;100976.78;6150456;23;20025;-77
2022/11/05 15:38:35;;;;;;;4.20;1.85;;;;;;;9.36;77.54;100975.19;6150277;23;20060;-77
2022/11/05 15:41:38;;;;;;;6.10;3.15;;;;;;;9.43;76.65;100974.88;6150302;23;20044;-76
2022/11/05 15:44:48;;;;;;;11.50;8.57;;;;;;;9.31;76.96;100970.13;6150365;23;20059;-77
2022/11/05 15:47:52;;;;;;;8.98;6.55;;;;;;;9.44;78.25;100971.34;6150224;23;20020;-77
2022/11/05 15:50:56;;;;;;;5.43;2.30;;;;;;;9.32;78.88;100959.66;6150395;23;20032;-77
2022/11/05 15:54:02;;;;;;;8.38;2.47;;;;;;;9.19;79.56;100962.78;6150697;23;20166;-77
2022/11/05 15:57:18;;;;;;;7.15;2.28;;;;;;;9.38;79.65;100965.53;6150886;23;20325;-76
2022/11/05 16:00:27;;;;;;;7.13;2.47;;;;;;;9.16;80.56;100962.94;6150695;23;20028;-76
2022/11/05 16:03:33;;;;;;;5.78;2.17;;;;;;;9.12;80.65;100967.41;6150977;23;20389;-77
2022/11/05 16:06:39;;;;;;;6.97;2.50;;;;;;;8.99;81.50;100972.25;6151118;23;20025;-76
2022/11/05 16:09:54;;;;;;;7.90;2.92;;;;;;;8.96;81.73;100980.19;6151160;23;20033;-77
2022/11/05 16:13:20;;;;;;;6.75;2.42;;;;;;;8.99;81.23;100984.44;6151351;23;20100;-77
2022/11/05 16:16:32;;;;;;;6.93;2.97;;;;;;;8.89;81.56;100999.59;6151263;23;20027;-77
2022/11/05 16:19:39;;;;;;;7.43;2.42;;;;;;;8.56;82.31;100993.88;6151180;23;20024;-78
2022/11/05 16:22:47;;;;;;;5.32;2.42;;;;;;;8.68;81.66;101008.22;6151215;23;20473;-77
2022/11/05 16:25:50;;;;;;;8.15;2.55;;;;;;;8.56;82.08;101006.91;6151191;23;20074;-77
2022/11/05 16:28:54;;;;;;;;;;;;;;;8.62;81.90;101014.53;6151464;23;20072;-77
2022/11/05 16:31:59;;;;;;;;;;;;;;;8.37;82.76;101011.91;6151615;23;19923;-78
2022/11/05 16:35:23;;;;;;;9.98;4.60;;;;;;;8.39;83.06;101015.31;6151132;23;20367;-89
2022/11/05 16:38:32;;;;;;;6.97;3.05;;;;;;;8.40;82.67;101014.44;6133894;23;20520;-77
2022/11/05 16:41:41;;;;;;;5.47;2.53;;;;;;;8.44;82.45;101028.19;6150970;23;20033;-78
2022/11/05 16:44:45;;;;;;;7.75;2.58;;;;;;;8.43;82.18;101027.34;6150871;23;20028;-78
2022/11/05 16:47:48;;;;;;;;;;;;;;;8.51;82.54;101020.09;6151333;23;20363;-76
2022/11/05 16:50:54;;;;;;;9.23;2.70;;;;;;;8.59;82.81;101020.69;6150921;23;19954;-78
2022/11/05 16:53:59;;;;;;;8.18;2.97;;;;;;;8.57;82.54;101019.03;6150845;23;20031;-78
2022/11/05 16:57:14;;;;;;;12.15;4.25;;;;;;;8.59;82.71;101023.28;6150833;23;20021;-78
2022/11/05 17:00:20;;;;;;;6.78;3.38;;;;;;;8.57;82.73;101022.47;6150745;23;20082;-77
2022/11/05 17:03:23;;;;;;;7.90;3.00;;;;;;;8.45;82.91;101020.31;6150826;23;20351;-75
2022/11/05 17:06:27;;;;;;;6.50;2.83;;;;;;;8.32;83.61;101013.81;6149194;23;20090;-77
2022/11/05 17:09:30;;;;;;;;;;;;;;;8.31;84.21;101022.53;6132072;23;20106;-77
2022/11/05 17:12:35;;;;;;;6.13;2.85;;;;;;;8.37;84.08;101024.94;6132084;23;19919;-76
2022/11/05 17:15:40;;;;;;;10.00;5.18;;;;;;;8.53;83.31;101033.94;6151388;23;20056;-77
2022/11/05 17:18:44;;;;;;;5.40;2.55;;;;;;;8.31;84.80;101032.97;6151676;23;20026;-77
2022/11/05 17:21:48;;;;;;;13.43;9.10;;;;;;;8.29;84.44;101042.56;6151685;23;20029;-77
2022/11/05 17:24:53;;;;;;;7.70;4.63;;;;;;;8.37;84.00;101043.16;6151688;23;20052;-77
2022/11/05 17:27:58;;;;;;;13.70;4.60;;;;;;;8.43;83.62;101047.34;6151565;23;20024;-77
2022/11/05 17:31:08;;;;;;;11.23;5.95;;;;;;;8.23;84.34;101042.78;6151461;23;20028;-77
2022/11/05 17:34:11;;;;;;;10.73;5.13;;;;;;;8.14;84.74;101044.81;6151694;23;20029;-78
2022/11/05 17:37:18;;;;;;;8.18;4.50;;;;;;;8.15;84.78;101036.09;6151349;23;20028;-78
2022/11/05 17:40:24;;;;;;;7.85;5.18;;;;;;;8.37;83.99;101031.00;6133471;23;20105;-77
2022/11/05 17:43:32;;;;;;;10.73;4.88;;;;;;;8.54;83.36;101032.19;6151697;23;20033;-82
2022/11/05 17:46:35;;;;;;;9.18;5.68;;;;;;;8.33;84.17;101028.56;6151487;23;20071;-78
2022/11/05 17:49:41;;;;;;;9.63;6.35;;;;;;;8.39;83.37;101036.16;6151477;23;20025;-78
2022/11/05 17:52:46;;;;;;;13.68;8.57;;;;;;;8.19;84.33;101038.59;6151562;23;20032;-78
2022/11/05 17:55:51;;;;;;;11.65;8.07;;;;;;;8.17;84.50;101046.47;6151537;23;20476;-78
2022/11/05 17:58:56;;;;;;;15.77;8.15;;;;;;;7.86;85.96;101047.47;6151468;23;20025;-78
2022/11/05 18:01:59;;;;;;;10.30;5.28;;;;;;;7.68;86.89;101056.72;6151662;23;20071;-78
2022/11/05 18:05:02;;;;;;;10.18;4.32;;;;;;;7.96;85.92;101058.44;6134111;23;20110;-78
2022/11/05 18:08:07;;;;;;;9.18;3.80;;;;;;;7.99;86.47;101063.56;6133804;23;20054;-77
2022/11/05 18:11:11;;;;;;;8.52;4.22;;;;;;;8.07;85.40;101069.38;6134005;23;20060;-78
2022/11/05 18:14:16;;;;;;;14.45;8.13;;;;;;;8.10;85.18;101065.78;6151755;23;20035;-77
2022/11/05 18:17:19;;;;;;;13.80;6.65;;;;;;;8.01;85.49;101074.78;6151874;23;20102;-79
2022/11/05 18:20:23;;;;;;;10.25;4.78;;;;;;;7.99;85.43;101078.31;6151522;23;20028;-79
2022/11/05 18:23:27;;;;;;;;;;;;;;;8.10;84.86;101077.09;6134252;23;20028;-79
2022/11/05 18:26:31;;;;;;;14.40;8.60;;;;;;;8.03;85.12;101078.16;6151590;23;19920;-79
2022/11/05 18:29:36;;;;;;;14.82;9.25;;;;;;;8.15;84.82;101067.34;6151537;23;20027;-77
2022/11/05 18:32:40;;;;;;;12.18;6.32;;;;;;;7.83;86.04;101064.94;6151788;23;20070;-78
2022/11/05 18:35:44;;;;;;;9.45;4.30;;;;;;;7.95;85.92;101069.78;6151763;23;20025;-78
2022/11/05 18:38:48;;;;;;;10.38;3.78;;;;;;;8.06;85.48;101067.66;6151431;23;20379;-77
2022/11/05 18:41:51;;;;;;;48.72;33.45;;;;;;;8.06;85.57;101065.03;6133996;23;20027;-78
2022/11/05 18:44:54;;;;;;;34.17;21.92;;;;;;;8.05;85.88;101068.56;6151638;23;20083;-78
2022/11/05 18:48:01;;;;;;;14.95;9.73;;;;;;;8.17;85.25;101062.09;6151956;23;20024;-77
2022/11/05 18:51:10;;;;;;;10.32;5.80;;;;;;;8.13;85.36;101056.13;6151666;23;20024;-78
2022/11/05 18:54:14;;;;;;;9.63;3.53;;;;;;;8.24;85.70;101058.38;6151715;23;20028;-80
2022/11/05 18:57:20;;;;;;;7.82;3.90;;;;;;;8.02;86.59;101055.63;6133864;23;20023;-81
2022/11/05 19:00:24;;;;;;;10.45;3.78;;;;;;;8.09;86.09;101041.50;6151560;23;20071;-77
2022/11/05 19:03:53;;;;;;;6.78;2.65;;;;;;;8.05;86.09;101042.50;6151641;23;20029;-78
2022/11/05 19:07:22;;;;;;;10.73;3.28;;;;;;;7.81;86.69;101049.38;6133507;23;20458;-79
2022/11/05 19:10:30;;;;;;;8.00;3.60;;;;;;;7.90;86.30;101050.81;6134491;23;20025;-78
2022/11/05 19:13:37;;;;;;;14.63;3.03;;;;;;;7.82;86.51;101051.09;6151482;23;20297;-78
2022/11/05 19:16:43;;;;;;;11.57;3.47;;;;;;;7.68;86.97;101048.91;6151580;23;20044;-78
2022/11/05 19:19:49;;;;;;;7.65;2.78;;;;;;;7.76;86.66;101045.22;6133872;23;20099;-78
2022/11/05 19:22:57;;;;;;;7.45;2.88;;;;;;;7.74;86.05;101052.22;6151493;23;20601;-78
2022/11/05 19:26:03;;;;;;;9.45;2.80;;;;;;;7.44;86.59;101045.34;6151548;23;20028;-78
2022/11/05 19:29:07;;;;;;;8.27;3.40;;;;;;;7.47;86.84;101047.00;6151370;23;20398;-79
2022/11/05 19:32:10;;;;;;;8.80;3.85;;;;;;;7.60;86.41;101047.47;6151529;23;20029;-78
2022/11/05 19:35:14;;;;;;;10.23;3.67;;;;;;;7.52;86.05;101049.44;6133216;23;20028;-78
2022/11/05 19:38:19;;;;;;;11.43;3.63;;;;;;;7.48;86.20;101046.09;6130687;23;20028;-77
2022/11/05 19:41:25;;;;;;;9.55;3.60;;;;;;;7.37;86.47;101054.25;6150434;23;20028;-78
2022/11/05 19:44:28;;;;;;;6.13;3.60;;;;;;;7.40;86.16;101046.34;6151378;23;20036;-79
2022/11/05 19:47:32;;;;;;;;;;;;;;;7.56;85.99;101051.06;6151842;23;20024;-79
2022/11/05 19:50:41;;;;;;;7.78;3.28;;;;;;;7.41;86.31;101049.78;6151815;23;20368;-77
2022/11/05 19:53:44;;;;;;;8.75;4.07;;;;;;;7.48;85.54;101050.44;6151419;23;20359;-78
2022/11/05 19:56:51;;;;;;;8.15;3.45;;;;;;;7.46;85.86;101055.69;6151376;23;20032;-77
2022/11/05 19:59:55;;;;;;;8.10;3.58;;;;;;;7.49;85.69;101049.53;6151237;23;20051;-78
2022/11/05 20:03:00;;;;;;;6.63;3.03;;;;;;;7.42;85.70;101052.34;6151373;23;20078;-78
2022/11/05 20:06:27;;;;;;;5.57;3.28;;;;;;;7.37;85.95;101054.25;6151300;23;20059;-78
2022/11/05 20:09:31;;;;;;;7.20;3.60;;;;;;;7.38;86.76;101055.94;6133280;23;20350;-78
2022/11/05 20:12:34;;;;;;;;;;;;;;;7.38;86.72;101052.50;6151763;23;20482;-78
2022/11/05 20:15:38;;;;;;;;;;;;;;;7.48;86.04;101047.84;6151766;23;19955;-78
2022/11/05 20:18:42;;;;;;;10.90;3.90;;;;;;;7.37;86.72;101049.03;6151221;23;19931;-79
2022/11/05 20:21:46;;;;;;;14.10;3.75;;;;;;;7.44;86.22;101034.09;6133770;23;20032;-80
2022/11/05 20:24:58;;;;;;;9.77;3.30;;;;;;;7.40;86.06;101035.06;6151198;23;20028;-77
2022/11/05 20:28:01;;;;;;;9.82;3.58;;;;;;;7.38;86.15;101039.47;6133252;23;20355;-77
2022/11/05 20:31:07;;;;;;;6.43;2.63;;;;;;;7.25;86.57;101038.16;6151032;23;20025;-80
2022/11/05 20:34:12;;;;;;;4.75;3.03;;;;;;;7.28;86.69;101040.66;6132982;23;20091;-79
2022/11/05 20:37:18;;;;;;;10.30;3.65;;;;;;;7.31;87.06;101037.97;6150797;23;20028;-79
2022/11/05 20:40:31;;;;;;;10.23;4.25;;;;;;;7.26;87.65;101029.44;6134685;23;20032;-77
2022/11/05 20:43:37;;;;;;;10.18;3.45;;;;;;;7.28;86.84;101036.31;6150936;23;20087;-78
2022/11/05 20:46:40;;;;;;;9.13;4.70;;;;;;;7.26;87.23;101035.50;6150831;23;20082;-77
2022/11/05 20:49:47;;;;;;;6.93;3.35;;;;;;;7.32;86.92;101037.06;6151765;23;20078;-76
2022/11/05 20:52:51;;;;;;;9.15;3.75;;;;;;;7.18;87.04;101033.13;6152230;23;20358;-76
2022/11/05 20:55:55;;;;;;;;;;;;;;;7.28;86.67;101044.13;6152790;23;20075;-77
2022/11/05 20:58:59;;;;;;;7.55;4.40;;;;;;;7.23;87.05;101046.84;6151222;23;19999;-76
2022/11/05 21:02:02;;;;;;;8.63;3.22;;;;;;;7.15;87.36;101043.63;6151967;23;20109;-77
2022/11/05 21:05:06;;;;;;;;;;;;;;;7.29;86.34;101050.16;6152669;23;20470;-77
2022/11/05 21:08:10;;;;;;;8.93;3.15;;;;;;;7.20;86.96;101043.47;6152109;23;19919;-77
2022/11/05 21:11:14;;;;;;;5.65;3.55;;;;;;;7.22;86.63;101044.28;6152118;23;20027;-77
2022/11/05 21:14:17;;;;;;;6.55;3.25;;;;;;;7.23;87.05;101036.44;6152041;23;20064;-77
2022/11/05 21:17:20;;;;;;;6.38;4.03;;;;;;;7.17;87.02;101052.22;6152129;23;20066;-77
2022/11/05 21:20:24;;;;;;;11.07;6.13;;;;;;;7.18;87.19;101048.75;6152175;23;20029;-77
2022/11/05 21:23:27;;;;;;;10.68;5.03;;;;;;;7.35;86.28;101055.19;6152473;23;20074;-77
2022/11/05 21:26:32;;;;;;;9.48;4.65;;;;;;;7.04;87.69;101061.28;6152118;23;20064;-77
2022/11/05 21:29:36;;;;;;;10.48;3.80;;;;;;;7.12;87.66;101074.09;6151935;23;20393;-77
2022/11/05 21:32:39;;;;;;;7.30;4.57;;;;;;;7.25;87.19;101074.56;6152015;23;20413;-78
2022/11/05 21:35:45;;;;;;;;;;;;;;;7.38;86.76;101071.53;6152863;23;20028;-78
2022/11/05 21:38:48;;;;;;;14.00;8.05;;;;;;;7.36;86.73;101077.69;6151987;23;19922;-78
2022/11/05 21:41:51;;;;;;;;;;;;;;;7.28;87.14;101079.69;6152502;23;20028;-79
2022/11/05 21:44:54;;;;;;;8.68;3.80;;;;;;;7.28;87.09;101074.47;6151885;23;19961;-78
2022/11/05 21:47:57;;;;;;;10.27;6.93;;;;;;;7.23;87.27;101067.66;6151953;23;20028;-78
2022/11/05 22:01:13;;;;;;;15.77;8.15;;;;;;;7.25;86.33;101074.56;6151742;23;20028;-77
2022/11/05 22:04:17;;;;;;;;;;;;;;;7.16;86.55;101073.09;6134397;23;20024;-77
2022/11/05 22:07:25;;;;;;;6.70;3.53;;;;;;;6.98;87.83;101079.66;6151848;23;19919;-77
2022/11/05 22:10:28;;;;;;;6.22;3.35;;;;;;;7.06;87.42;101077.69;6151918;23;20029;-77
2022/11/05 22:13:31;;;;;;;11.82;3.40;;;;;;;7.13;86.75;101067.97;6151851;23;20075;-77
2022/11/05 22:16:34;;;;;;;10.07;4.70;;;;;;;7.22;86.59;101065.94;6151900;23;20028;-76
2022/11/05 22:19:38;;;;;;;9.57;4.63;;;;;;;7.25;86.58;101074.56;6151824;23;20554;-76
2022/11/05 22:22:41;;;;;;;;;;;;;;;7.19;86.80;101071.25;6152320;23;20346;-77
2022/11/05 22:25:46;;;;;;;13.70;3.70;;;;;;;7.21;86.93;101069.47;6151853;23;20348;-77
2022/11/05 22:28:53;;;;;;;6.65;3.45;;;;;;;7.26;86.93;101065.84;6151575;23;20110;-77
2022/11/05 22:31:57;;;;;;;11.90;6.43;;;;;;;7.12;87.46;101069.72;6151745;23;20027;-77
2022/11/05 22:35:00;;;;;;;;;;;;;;;7.25;87.54;101074.56;6152268;23;20023;-77
2022/11/05 22:38:03;;;;;;;8.07;3.53;;;;;;;7.28;86.90;101061.47;6151594;23;19919;-77
2022/11/05 22:41:09;;;;;;;6.88;3.28;;;;;;;7.29;87.48;101073.56;6151723;23;20082;-76
2022/11/05 22:44:15;;;;;;;8.93;3.17;;;;;;;7.28;87.45;101074.47;6133836;23;20028;-77
2022/11/05 22:47:18;;;;;;;8.55;3.47;;;;;;;7.30;87.24;101065.72;6133743;23;20071;-77
2022/11/05 22:50:21;;;;;;;14.65;3.92;;;;;;;7.14;87.77;101062.72;6151754;23;20102;-77
2022/11/05 22:53:24;;;;;;;6.32;3.15;;;;;;;6.88;88.59;101067.81;6151723;23;20127;-77
2022/11/05 22:56:30;;;;;;;;;;;;;;;7.18;88.04;101068.69;6152204;23;20090;-77
2022/11/05 22:59:40;;;;;;;7.30;3.10;;;;;;;7.12;87.75;101059.31;6133546;23;19916;-77
2022/11/05 23:02:43;;;;;;;8.38;3.38;;;;;;;6.92;88.12;101059.03;6133951;23;20025;-77
2022/11/05 23:05:59;;;;;;;6.47;3.08;;;;;;;7.04;87.75;101058.69;6151346;23;20028;-77
2022/11/05 23:12:54;;;;;;;10.27;4.57;;;;;;;6.83;89.11;101051.50;6151055;23;20028;-77
2022/11/05 23:26:49;;;;;;;7.88;3.83;;;;;;;6.89;87.27;101009.72;6136973;23;20028;-77
2022/11/05 23:29:52;;;;;;;7.10;3.17;;;;;;;6.80;87.07;101012.63;6151419;23;20025;-76
2022/11/05 23:32:55;;;;;;;;;;;;;;;6.69;87.29;101015.50;6152447;23;20083;-77
2022/11/05 23:40:05;;;;;;;8.43;4.35;;;;;;;6.82;86.97;101011.66;6102796;23;20028;-76
2022/11/05 23:49:53;;;;;;;8.32;4.00;;;;;;;6.62;88.45;101004.44;6122018;23;20391;-76
2022/11/05 23:52:56;;;;;;;;;;;;;;;6.83;87.95;100989.09;6122562;23;20108;-77
2022/11/05 23:56:04;;;;;;;7.13;3.42;;;;;;;7.01;86.75;100978.16;6122065;23;19922;-77
2022/11/05 23:59:08;;;;;;;7.97;4.63;;;;;;;6.80;88.00;100976.22;6121863;23;20152;-77
